CDT,Max TemperatureF,Mean TemperatureF,Min TemperatureF,Max Dew PointF,MeanDew PointF,Min DewpointF,Max Humidity, Mean Humidity, Min Humidity, Max Sea Level PressureIn, Mean Sea Level PressureIn, Min Sea Level PressureIn, Max VisibilityMiles, Mean VisibilityMiles, Min VisibilityMiles, Max Wind SpeedMPH, Mean Wind SpeedMPH, Max Gust SpeedMPH,PrecipitationIn, CloudCover, Events, WindDirDegrees
2013-4-1,53,45,37,37,32,24,86,66,45,30.23,30.13,29.96,10,10,10,18,10,23,T,4,,13
2013-4-2,41,38,34,28,26,23,75,63,50,30.31,30.26,30.22,10,10,5,13,7,16,0.09,7,Rain,83
2013-4-3,54,43,31,26,21,18,75,51,26,30.31,30.24,30.18,10,10,10,22,10,32,0.00,1,,61
2013-4-4,58,47,35,31,28,24,75,53,30,30.16,30.12,30.06,10,10,10,15,6,21,T,6,Rain,14
2013-4-5,69,50,31,39,33,26,82,56,30,30.19,30.10,29.97,10,10,10,14,6,17,0.00,0,,197
2013-4-6,74,63,51,48,41,34,72,53,33,29.96,29.85,29.75,10,10,10,31,16,39,0.00,0,,191
2013-4-7,77,65,53,57,51,46,89,65,41,29.90,29.83,29.71,10,10,10,23,11,30,0.00,2,,199
2013-4-8,75,67,59,59,56,54,84,73,61,29.78,29.74,29.72,10,10,10,21,13,26,T,4,,168
2013-4-9,77,69,61,61,58,54,84,67,50,29.83,29.75,29.70,10,10,10,23,14,28,0.00,6,,149
2013-4-10,70,54,38,64,51,37,96,82,68,29.85,29.77,29.71,10,7,2,24,11,32,1.76,8,Rain-Thunderstorm,276
2013-4-11,47,40,33,37,32,30,100,77,53,29.83,29.80,29.75,10,9,4,23,14,29,T,6,,272
2013-4-12,53,43,32,33,30,26,82,64,46,30.04,29.93,29.80,10,10,10,22,11,30,0.00,2,,272
2013-4-13,70,52,34,45,37,32,89,64,39,30.07,29.96,29.80,10,10,10,22,10,28,0.00,1,,169
2013-4-14,80,66,52,57,46,38,77,50,23,29.79,29.65,29.50,10,10,4,30,17,35,0.11,1,Rain-Thunderstorm,164
2013-4-15,78,64,49,62,53,43,96,78,60,29.90,29.77,29.70,10,9,2,23,10,32,T,7,,28
2013-4-16,57,52,47,50,47,45,100,89,77,30.04,29.98,29.90,10,8,2,21,13,26,0.03,8,Rain-Thunderstorm,41
2013-4-17,83,67,50,67,59,47,100,77,54,30.01,29.84,29.62,10,8,4,28,15,34,0.00,3,,147
2013-4-18,73,55,37,65,48,28,93,79,64,29.94,29.71,29.54,10,8,1,30,15,38,1.21,8,Rain-Thunderstorm,252
2013-4-19,52,43,33,33,26,23,82,59,35,30.11,30.02,29.93,10,10,10,25,14,34,0.00,5,,283
2013-4-20,65,49,33,38,32,28,82,57,32,30.24,30.16,30.11,10,10,10,17,6,21,0.00,0,,112
2013-4-21,68,59,49,40,38,36,71,53,34,30.29,30.21,30.14,10,10,10,24,15,28,0.00,1,,149
2013-4-22,69,58,46,43,38,35,71,52,32,30.20,30.06,29.92,10,10,10,24,14,30,T,1,Rain,152
2013-4-23,60,48,36,52,44,35,100,78,55,30.10,29.97,29.87,10,6,0,22,13,26,0.50,8,Fog-Rain-Snow-Thunderstorm,3
2013-4-24,52,42,32,34,31,27,96,68,39,30.32,30.22,30.10,10,10,3,18,9,22,0.02,4,Rain-Snow,312
2013-4-25,66,49,31,38,32,27,82,55,28,30.37,30.30,30.21,10,10,10,16,7,22,T,0,Rain,201
2013-4-26,59,53,46,46,44,35,93,68,43,30.34,30.22,30.15,10,6,2,31,15,38,1.74,8,Rain-Thunderstorm,136
2013-4-27,54,51,48,51,48,45,96,93,89,30.17,30.04,30.00,10,8,2,25,9,31,0.18,8,Rain,107
2013-4-28,71,60,49,51,48,45,93,67,40,30.04,29.97,29.87,10,10,10,14,7,18,0.00,5,,280
2013-4-29,83,68,53,63,54,49,89,66,42,29.96,29.83,29.74,10,10,10,21,13,25,0.00,0,,185
2013-4-30,82,70,58,56,51,46,87,59,30,29.87,29.82,29.76,10,10,10,23,13,29,0.00,0,,169